Time;durP1;ratioP1;P1;durP2;ratioP2;P2;SDS_P1;SDS_P2;PMS_P1;PMS_P2;Temp;Humidity;BMP_temperature;BMP_pressure;BME280_temperature;BME280_humidity;BME280_pressure;Samples;Min_cycle;Max_cycle;Signal;HPM_P1;HPM_P2
2021/11/10 00:02:08;;;;;;;26.95;13.57;;;1.10;99.90;;;;;;5050229;28;20097;-67
2021/11/10 00:04:34;;;;;;;27.55;14.13;;;1.10;99.90;;;;;;5049508;28;20418;-67
2021/11/10 00:07:01;;;;;;;25.70;14.43;;;1.00;99.90;;;;;;5050242;28;20047;-67
2021/11/10 00:09:27;;;;;;;30.45;15.10;;;1.00;99.90;;;;;;5049834;28;20029;-67
2021/11/10 00:11:55;;;;;;;28.27;13.40;;;1.00;99.90;;;;;;5048267;28;20127;-67
2021/11/10 00:14:22;;;;;;;22.10;12.95;;;0.90;99.90;;;;;;5049754;28;20033;-67
2021/11/10 00:16:47;;;;;;;23.25;12.80;;;0.90;99.90;;;;;;5048845;28;20491;-67
2021/11/10 00:19:14;;;;;;;30.80;14.20;;;0.90;99.90;;;;;;5050046;28;20117;-67
2021/11/10 00:21:39;;;;;;;28.42;14.38;;;0.90;99.90;;;;;;5048883;28;20036;-67
2021/11/10 00:24:07;;;;;;;26.65;14.43;;;0.90;99.90;;;;;;5049794;28;20090;-66
2021/11/10 00:26:33;;;;;;;30.30;14.68;;;1.00;99.90;;;;;;5047923;28;20390;-67
2021/11/10 00:28:59;;;;;;;26.63;14.05;;;1.10;99.90;;;;;;5049178;28;20029;-67
2021/11/10 00:31:24;;;;;;;23.52;14.15;;;1.20;99.90;;;;;;5047291;28;20327;-67
2021/11/10 00:33:50;;;;;;;30.42;15.00;;;1.20;99.90;;;;;;5048351;28;20020;-67
2021/11/10 00:36:16;;;;;;;22.27;12.55;;;1.20;99.90;;;;;;5050023;28;20091;-67
2021/11/10 00:38:42;;;;;;;26.30;12.50;;;1.20;99.90;;;;;;5048617;28;20479;-67
2021/11/10 00:41:08;;;;;;;29.38;14.65;;;1.10;99.90;;;;;;5049550;28;20029;-67
2021/11/10 00:43:34;;;;;;;29.88;14.13;;;1.10;99.90;;;;;;5049144;28;20086;-67
2021/11/10 00:46:00;;;;;;;30.40;14.45;;;1.10;99.90;;;;;;5048862;28;20052;-67
2021/11/10 00:48:26;;;;;;;27.58;15.05;;;1.10;99.90;;;;;;5050026;28;20470;-67
2021/11/10 00:50:52;;;;;;;27.50;13.85;;;1.20;99.90;;;;;;5050452;28;20651;-67
2021/11/10 00:53:18;;;;;;;27.40;14.07;;;1.20;99.90;;;;;;5050985;28;20036;-67
2021/11/10 00:55:44;;;;;;;28.85;14.10;;;1.10;99.90;;;;;;5049878;28;20100;-67
2021/11/10 00:58:10;;;;;;;22.27;12.52;;;1.10;99.90;;;;;;5050523;28;20132;-67
2021/11/10 01:00:38;;;;;;;24.02;13.30;;;1.10;99.90;;;;;;5050981;28;20080;-67
2021/11/10 01:03:04;;;;;;;23.15;12.40;;;1.10;99.90;;;;;;5050570;28;20025;-67
2021/11/10 01:05:31;;;;;;;24.17;12.73;;;1.00;99.90;;;;;;5050956;28;20033;-67
2021/11/10 01:07:57;;;;;;;22.48;13.73;;;0.90;99.90;;;;;;5051086;28;20091;-67
2021/11/10 01:10:24;;;;;;;24.70;13.77;;;0.90;99.90;;;;;;5050756;28;20040;-67
2021/11/10 01:12:50;;;;;;;27.73;14.20;;;0.90;99.90;;;;;;5049339;28;20064;-67
2021/11/10 01:15:16;;;;;;;19.92;12.20;;;0.80;99.90;;;;;;5050342;28;20073;-67
2021/11/10 01:17:42;;;;;;;26.88;12.98;;;0.80;99.90;;;;;;5050059;28;20028;-67
2021/11/10 01:20:10;;;;;;;23.65;13.45;;;0.80;99.90;;;;;;5050540;28;20407;-67
2021/11/10 01:22:35;;;;;;;26.05;13.32;;;0.70;99.90;;;;;;5050221;28;20108;-67
2021/11/10 01:25:02;;;;;;;21.58;12.65;;;0.70;99.90;;;;;;5050095;28;20104;-67
2021/11/10 01:27:28;;;;;;;26.23;14.57;;;0.60;99.90;;;;;;5050274;28;20025;-66
2021/11/10 01:29:54;;;;;;;30.05;15.77;;;0.60;99.90;;;;;;5049794;28;20073;-67
2021/11/10 01:32:19;;;;;;;24.92;14.18;;;0.70;99.90;;;;;;5048847;28;20056;-67
2021/11/10 01:34:45;;;;;;;25.63;13.18;;;0.70;99.90;;;;;;5050467;28;20515;-67
2021/11/10 01:37:11;;;;;;;27.08;15.15;;;0.80;99.90;;;;;;5050792;28;20037;-67
2021/11/10 01:39:37;;;;;;;31.35;15.00;;;0.80;99.90;;;;;;5049667;28;20100;-67
2021/11/10 01:42:04;;;;;;;25.23;14.30;;;0.80;99.90;;;;;;5049889;28;20165;-66
2021/11/10 01:44:33;;;;;;;30.35;15.88;;;0.80;99.90;;;;;;5049666;28;20052;-66
2021/11/10 01:47:02;;;;;;;29.98;15.95;;;0.80;99.90;;;;;;5050345;28;20025;-67
2021/11/10 01:49:28;;;;;;;28.50;15.93;;;0.80;99.90;;;;;;5050688;28;20033;-67
2021/11/10 01:51:56;;;;;;;28.50;15.77;;;0.90;99.90;;;;;;5050147;28;20104;-67
2021/11/10 01:54:24;;;;;;;25.67;14.63;;;0.80;99.90;;;;;;5054189;28;20035;-67
2021/11/10 01:56:51;;;;;;;25.52;13.55;;;0.80;99.90;;;;;;5053006;28;20458;-67
2021/11/10 01:59:31;;;;;;;20.55;13.63;;;0.70;99.90;;;;;;5054184;28;20025;-67
2021/11/10 02:01:57;;;;;;;;;;;0.70;99.90;;;;;;5054286;28;20036;-67
2021/11/10 02:04:30;;;;;;;24.67;13.63;;;0.60;99.90;;;;;;5054211;28;19999;-67
2021/11/10 02:06:57;;;;;;;24.48;13.85;;;0.50;99.90;;;;;;5053364;28;20526;-67
2021/11/10 02:09:24;;;;;;;28.35;14.57;;;0.50;99.90;;;;;;5053574;28;20116;-66
2021/11/10 02:11:51;;;;;;;26.70;14.20;;;0.40;99.90;;;;;;5052676;28;20159;-67
2021/11/10 02:14:19;;;;;;;27.02;14.77;;;0.30;99.90;;;;;;5053265;28;20055;-67
2021/11/10 02:16:44;;;;;;;30.80;16.98;;;0.30;99.90;;;;;;5053470;28;20033;-67
2021/11/10 02:19:12;;;;;;;26.42;14.95;;;0.30;99.90;;;;;;5051661;28;20047;-67
2021/11/10 02:21:47;;;;;;;34.13;16.73;;;0.30;99.90;;;;;;5052580;28;20071;-67
2021/11/10 02:24:13;;;;;;;28.88;15.77;;;0.30;99.90;;;;;;5053526;28;20033;-67
2021/11/10 02:26:41;;;;;;;33.42;17.63;;;0.40;99.90;;;;;;5052755;28;20036;-67
2021/11/10 02:29:07;;;;;;;35.28;17.67;;;0.40;99.90;;;;;;5053065;28;20029;-67
2021/11/10 02:31:34;;;;;;;35.35;18.58;;;0.40;99.90;;;;;;5053284;28;20029;-67
2021/11/10 02:34:01;;;;;;;37.28;19.48;;;0.50;99.90;;;;;;5052574;28;20478;-66
2021/11/10 02:36:27;;;;;;;37.65;18.65;;;0.50;99.90;;;;;;5052685;28;20068;-66
2021/11/10 02:38:53;;;;;;;32.35;17.75;;;0.50;99.90;;;;;;5052518;28;20033;-66
2021/11/10 02:41:19;;;;;;;31.33;17.17;;;0.60;99.90;;;;;;5053438;28;20029;-67
2021/11/10 02:43:45;;;;;;;34.67;18.00;;;0.50;99.90;;;;;;5051955;28;20493;-67
2021/11/10 02:46:10;;;;;;;35.80;17.73;;;0.50;99.90;;;;;;5052573;28;20053;-67
2021/11/10 02:48:36;;;;;;;36.25;18.52;;;0.50;99.90;;;;;;5052916;28;20029;-67
2021/11/10 02:51:06;;;;;;;33.03;18.48;;;0.40;99.90;;;;;;5053040;28;20033;-66
2021/11/10 02:53:33;;;;;;;40.83;20.42;;;0.40;99.90;;;;;;5052717;28;20025;-67
2021/11/10 02:55:59;;;;;;;37.88;19.65;;;0.40;99.90;;;;;;5051923;28;20037;-66
2021/11/10 02:58:29;;;;;;;42.35;20.77;;;0.40;99.90;;;;;;5052597;28;20021;-66
2021/11/10 03:00:55;;;;;;;40.45;20.92;;;0.40;99.90;;;;;;5051700;28;20039;-67
2021/11/10 03:03:21;;;;;;;46.92;20.92;;;0.40;99.90;;;;;;5052093;28;20383;-67
2021/11/10 03:05:51;;;;;;;45.22;20.65;;;0.40;99.90;;;;;;5049631;28;20056;-67
2021/11/10 03:08:19;;;;;;;41.58;20.52;;;0.50;99.90;;;;;;5051248;28;20025;-66
2021/11/10 03:10:45;;;;;;;39.40;19.55;;;0.50;99.90;;;;;;5050740;28;20033;-67
2021/11/10 03:13:11;;;;;;;37.47;20.45;;;0.50;99.90;;;;;;5051386;28;20127;-66
2021/11/10 03:15:42;;;;;;;36.75;20.25;;;0.40;99.90;;;;;;5050874;28;20037;-66
2021/11/10 03:18:08;;;;;;;41.17;19.55;;;0.40;99.90;;;;;;5049969;28;20033;-66
2021/11/10 03:20:34;;;;;;;43.22;21.08;;;0.30;99.90;;;;;;5050896;28;20470;-66
2021/11/10 03:23:00;;;;;;;42.03;20.95;;;0.30;99.90;;;;;;5050324;28;20045;-66
2021/11/10 03:25:26;;;;;;;42.85;22.17;;;0.30;99.90;;;;;;5050805;28;20052;-67
2021/11/10 03:27:52;;;;;;;40.92;21.75;;;0.20;99.90;;;;;;5050183;28;20423;-67
2021/11/10 03:30:19;;;;;;;56.38;22.30;;;0.20;99.90;;;;;;5050274;28;20043;-66
2021/11/10 03:32:45;;;;;;;47.80;22.77;;;0.20;99.90;;;;;;5049852;28;20036;-66
2021/11/10 03:35:12;;;;;;;45.10;21.55;;;0.20;99.90;;;;;;5051143;28;20029;-67
2021/11/10 03:37:40;;;;;;;44.33;21.60;;;0.30;99.90;;;;;;5050447;28;20071;-67
2021/11/10 03:40:07;;;;;;;44.60;21.35;;;0.30;99.90;;;;;;5050892;28;20045;-66
2021/11/10 03:42:33;;;;;;;46.00;22.67;;;0.20;99.90;;;;;;5050564;28;20402;-67
2021/11/10 03:44:59;;;;;;;45.70;20.63;;;0.30;99.90;;;;;;5050207;28;20103;-68
2021/11/10 03:47:25;;;;;;;44.55;21.60;;;0.30;99.90;;;;;;5050541;28;20033;-67
2021/11/10 03:49:51;;;;;;;40.40;20.63;;;0.40;99.90;;;;;;5049640;28;20036;-68
2021/11/10 03:52:18;;;;;;;38.35;22.55;;;0.40;99.90;;;;;;5050544;28;20035;-68
2021/11/10 03:54:45;;;;;;;51.33;23.98;;;0.40;99.90;;;;;;5049965;28;20029;-68
2021/11/10 03:57:11;;;;;;;56.33;24.55;;;0.40;99.90;;;;;;5050422;28;20037;-67
2021/11/10 03:59:42;;;;;;;59.47;25.67;;;0.40;99.90;;;;;;5049883;28;20108;-67
2021/11/10 04:02:10;;;;;;;50.25;24.48;;;0.40;99.90;;;;;;5048820;28;20510;-67
2021/11/10 04:04:38;;;;;;;49.88;23.60;;;0.40;99.90;;;;;;5050348;28;20445;-67
2021/11/10 04:07:04;;;;;;;38.95;20.40;;;0.60;99.90;;;;;;5047247;28;20037;-67
2021/11/10 04:09:30;;;;;;;36.63;20.23;;;0.50;99.90;;;;;;5050407;28;20029;-67
2021/11/10 04:11:56;;;;;;;38.88;20.38;;;0.50;99.90;;;;;;5049305;28;20036;-67
2021/11/10 04:14:22;;;;;;;45.17;21.27;;;0.40;99.90;;;;;;5049907;28;20029;-67
2021/11/10 04:16:48;;;;;;;35.95;20.05;;;0.30;99.90;;;;;;5048921;28;20112;-68
2021/11/10 04:19:13;;;;;;;44.03;21.33;;;0.30;99.90;;;;;;5048998;28;20296;-67
2021/11/10 04:21:40;;;;;;;44.08;22.02;;;0.20;99.90;;;;;;5049530;28;20028;-67
2021/11/10 04:24:07;;;;;;;39.25;21.67;;;0.20;99.90;;;;;;5050440;28;20056;-67
2021/11/10 04:26:36;;;;;;;36.78;19.83;;;0.20;99.90;;;;;;5049736;28;20156;-67
2021/11/10 04:29:04;;;;;;;41.05;19.35;;;0.10;99.90;;;;;;5047464;28;20056;-67
2021/11/10 04:31:30;;;;;;;40.83;20.15;;;0.10;99.90;;;;;;5050576;28;20028;-67
2021/11/10 04:33:57;;;;;;;48.47;22.25;;;0.00;99.90;;;;;;5049437;28;20044;-67
2021/11/10 04:36:29;;;;;;;49.92;22.73;;;0.00;99.90;;;;;;5046366;28;20764;-67
2021/11/10 04:38:55;;;;;;;51.13;23.27;;;0.00;99.90;;;;;;5049812;28;20028;-67
2021/11/10 04:41:21;;;;;;;50.10;24.90;;;0.00;99.90;;;;;;5048170;28;20033;-67
2021/11/10 04:43:47;;;;;;;50.78;24.52;;;0.10;99.90;;;;;;5049161;28;20113;-67
2021/11/10 04:48:40;;;;;;;44.75;21.58;;;0.10;99.90;;;;;;5049919;28;20126;-68
2021/11/10 04:51:08;;;;;;;41.10;21.38;;;0.10;99.90;;;;;;5049991;28;20048;-67
2021/11/10 04:53:39;;;;;;;48.83;22.77;;;0.10;99.90;;;;;;5050069;28;20367;-67
2021/11/10 04:56:06;;;;;;;43.40;22.85;;;0.10;99.90;;;;;;5051319;28;20025;-67
2021/11/10 04:58:32;;;;;;;43.28;22.13;;;0.00;99.90;;;;;;5051987;28;20021;-67
2021/11/10 05:00:58;;;;;;;49.72;23.20;;;0.00;99.90;;;;;;5049957;28;20029;-67
2021/11/10 05:03:24;;;;;;;46.15;21.40;;;0.00;99.90;;;;;;5051672;28;20492;-67
2021/11/10 05:05:51;;;;;;;42.58;21.92;;;-0.10;99.90;;;;;;5051063;28;20052;-67
2021/11/10 05:08:17;;;;;;;46.03;22.83;;;-0.10;99.90;;;;;;5051417;28;20029;-67
2021/11/10 05:10:42;;;;;;;46.45;22.02;;;-0.20;99.90;;;;;;5050935;28;20500;-68
2021/11/10 05:13:08;;;;;;;49.22;22.13;;;-0.20;99.90;;;;;;5050460;28;20043;-67
2021/11/10 05:15:34;;;;;;;46.08;22.75;;;-0.20;99.90;;;;;;5050807;28;20386;-67
2021/11/10 05:18:00;;;;;;;57.78;25.73;;;-0.20;99.90;;;;;;5050244;28;20060;-67
2021/11/10 05:20:27;;;;;;;56.00;25.40;;;-0.20;99.90;;;;;;5051369;28;20029;-67
2021/11/10 05:22:53;;;;;;;62.35;26.92;;;-0.20;99.90;;;;;;5050164;28;20541;-67
2021/11/10 05:25:19;;;;;;;58.90;25.42;;;-0.20;99.90;;;;;;5051242;28;20028;-67
2021/11/10 05:27:44;;;;;;;49.88;24.42;;;-0.20;99.90;;;;;;5053792;28;20037;-67
2021/11/10 05:30:11;;;;;;;49.33;23.75;;;-0.30;99.90;;;;;;5055157;28;20449;-67
2021/11/10 05:32:37;;;;;;;48.25;24.20;;;-0.30;99.90;;;;;;5054595;28;20025;-67
2021/11/10 05:35:03;;;;;;;55.58;26.67;;;-0.30;99.90;;;;;;5052916;28;20095;-67
2021/11/10 05:37:30;;;;;;;62.13;25.98;;;-0.30;99.90;;;;;;5054066;28;20537;-67
2021/11/10 05:39:56;;;;;;;51.47;24.50;;;-0.30;99.90;;;;;;5054743;28;20110;-67
2021/11/10 05:42:24;;;;;;;55.35;25.20;;;-0.30;99.90;;;;;;5055102;28;20067;-67
2021/11/10 05:44:50;;;;;;;55.40;26.35;;;-0.30;99.90;;;;;;5054448;28;20516;-67
2021/11/10 05:47:16;;;;;;;51.00;24.52;;;-0.40;99.90;;;;;;5054781;28;20048;-67
2021/11/10 05:49:42;;;;;;;52.90;25.88;;;-0.40;99.90;;;;;;5054777;28;20037;-67
2021/11/10 05:52:08;;;;;;;53.47;24.42;;;-0.40;99.90;;;;;;5055692;28;20027;-67
2021/11/10 05:54:34;;;;;;;56.17;26.02;;;-0.30;99.90;;;;;;5055420;28;20075;-67
2021/11/10 05:57:01;;;;;;;59.08;25.60;;;-0.30;99.90;;;;;;5054482;28;20417;-67
2021/11/10 05:59:27;;;;;;;56.42;24.88;;;-0.30;99.90;;;;;;5055149;28;20043;-67
2021/11/10 06:01:53;;;;;;;60.80;27.75;;;-0.30;99.90;;;;;;5054109;28;20500;-67
2021/11/10 06:04:19;;;;;;;66.97;28.90;;;-0.30;99.90;;;;;;5055663;28;20029;-67
2021/11/10 06:06:45;;;;;;;61.05;27.70;;;-0.30;99.90;;;;;;5053941;28;20091;-68
2021/11/10 06:09:10;;;;;;;56.95;25.00;;;-0.30;99.90;;;;;;5055206;28;20029;-67
2021/11/10 06:11:36;;;;;;;66.47;27.17;;;-0.30;99.90;;;;;;5054852;28;20025;-67
2021/11/10 06:14:02;;;;;;;55.72;25.15;;;-0.30;99.90;;;;;;5054572;28;20033;-67
2021/11/10 06:16:29;;;;;;;61.30;25.00;;;-0.20;99.90;;;;;;5054750;28;20040;-67
2021/11/10 06:18:54;;;;;;;58.78;25.33;;;-0.20;99.90;;;;;;5054175;28;20047;-67
2021/11/10 06:21:20;;;;;;;50.55;23.40;;;-0.20;99.90;;;;;;5055033;28;20546;-67
2021/11/10 06:23:46;;;;;;;67.30;25.98;;;-0.20;99.90;;;;;;5053535;28;20112;-67
2021/11/10 06:26:12;;;;;;;58.30;24.27;;;-0.20;99.90;;;;;;5053824;28;20039;-67
2021/11/10 06:28:37;;;;;;;52.63;25.23;;;-0.20;99.90;;;;;;5053964;28;20032;-67
2021/11/10 06:31:03;;;;;;;72.57;27.65;;;-0.20;99.90;;;;;;5053273;28;20096;-68
2021/11/10 06:33:29;;;;;;;64.55;26.40;;;-0.20;99.90;;;;;;5053893;28;20029;-67
2021/11/10 06:35:55;;;;;;;55.95;26.38;;;-0.10;99.90;;;;;;5052649;28;20204;-67
2021/11/10 06:38:21;;;;;;;63.95;26.20;;;-0.10;99.90;;;;;;5053051;28;20120;-67
2021/11/10 06:40:47;;;;;;;57.22;26.50;;;0.00;99.90;;;;;;5052789;28;20035;-67
2021/11/10 06:43:13;;;;;;;56.60;26.15;;;0.00;99.90;;;;;;5046414;28;20033;-66
2021/11/10 06:45:38;;;;;;;61.83;26.40;;;0.00;99.90;;;;;;5053659;28;20453;-65
2021/11/10 06:48:05;;;;;;;57.33;24.83;;;0.00;99.90;;;;;;5054384;28;20064;-69
2021/11/10 06:50:30;;;;;;;57.60;25.45;;;0.00;99.90;;;;;;5053189;28;20496;-66
2021/11/10 06:52:56;;;;;;;66.85;27.40;;;0.00;99.90;;;;;;5052281;28;20021;-66
2021/11/10 06:55:22;;;;;;;59.42;26.20;;;0.00;99.90;;;;;;5053715;28;20109;-66
2021/11/10 06:57:48;;;;;;;59.88;26.92;;;0.10;99.90;;;;;;5052905;28;20062;-67
2021/11/10 07:00:15;;;;;;;56.55;26.75;;;0.10;99.90;;;;;;5055585;28;20031;-66
2021/11/10 07:02:45;;;;;;;63.95;27.95;;;0.10;99.90;;;;;;5053151;28;20028;-65
2021/11/10 07:05:11;;;;;;;71.50;27.90;;;0.10;99.90;;;;;;5053305;28;20052;-65
2021/11/10 07:07:37;;;;;;;57.72;27.00;;;0.20;99.90;;;;;;5052984;28;20072;-65
2021/11/10 07:10:04;;;;;;;58.78;26.30;;;0.20;99.90;;;;;;5052504;28;20470;-65
2021/11/10 07:12:30;;;;;;;55.78;24.98;;;0.30;99.90;;;;;;5052881;28;20078;-65
2021/11/10 07:14:56;;;;;;;51.72;25.88;;;0.40;99.90;;;;;;5070941;28;20032;-65
2021/11/10 07:17:23;;;;;;;51.67;25.83;;;0.40;99.90;;;;;;5073098;28;20525;-65
2021/11/10 07:19:51;;;;;;;55.95;26.23;;;0.50;99.90;;;;;;5072021;28;20115;-66
2021/11/10 07:22:18;;;;;;;53.13;24.77;;;0.50;99.90;;;;;;5059307;28;20024;-66
2021/11/10 07:24:49;;;;;;;61.60;25.85;;;0.70;99.90;;;;;;5052761;28;20401;-66
2021/11/10 07:27:15;;;;;;;55.35;25.05;;;0.80;99.90;;;;;;5052925;28;20397;-66
2021/11/10 07:29:41;;;;;;;47.83;23.70;;;0.90;99.90;;;;;;5052656;28;20036;-66
2021/11/10 07:32:07;;;;;;;46.42;22.95;;;1.00;99.90;;;;;;5051449;28;20040;-66
2021/11/10 07:34:34;;;;;;;44.53;22.15;;;1.10;99.90;;;;;;5049138;28;20029;-65
2021/11/10 07:36:59;;;;;;;39.88;22.63;;;1.10;99.90;;;;;;5051202;28;20045;-65
2021/11/10 07:39:26;;;;;;;46.42;23.23;;;1.20;99.90;;;;;;5053519;28;20032;-65
2021/11/10 07:41:52;;;;;;;40.38;22.02;;;1.30;99.90;;;;;;5051600;28;20032;-65
2021/11/10 07:44:18;;;;;;;40.58;22.17;;;1.30;99.90;;;;;;5052665;28;20112;-65
2021/11/10 07:46:53;;;;;;;38.58;21.58;;;1.40;99.90;;;;;;5052273;28;20128;-75
2021/11/10 07:49:22;;;;;;;39.17;22.23;;;1.50;99.90;;;;;;5033006;28;20868;-76
2021/11/10 07:51:49;;;;;;;33.45;20.23;;;1.80;99.90;;;;;;5050461;28;20044;-76
2021/11/10 07:54:15;;;;;;;37.33;21.00;;;2.00;99.90;;;;;;5051455;28;20057;-77
2021/11/10 07:56:41;;;;;;;34.30;19.80;;;2.10;99.90;;;;;;5051348;28;20034;-78
2021/11/10 07:59:07;;;;;;;35.17;18.98;;;2.20;99.90;;;;;;5050901;28;20116;-65
2021/11/10 08:01:33;;;;;;;34.22;18.88;;;2.30;99.90;;;;;;5051962;28;20474;-65
2021/11/10 08:04:02;;;;;;;33.80;20.25;;;2.30;99.90;;;;;;5054131;28;20463;-65
2021/11/10 08:06:29;;;;;;;32.17;18.98;;;2.30;99.90;;;;;;5059456;28;20025;-65
2021/11/10 08:08:55;;;;;;;35.28;19.60;;;2.40;99.90;;;;;;5050307;28;20041;-65
2021/11/10 08:11:21;;;;;;;34.80;17.55;;;2.40;99.90;;;;;;5050929;28;20043;-66
2021/11/10 08:13:50;;;;;;;27.05;17.00;;;2.50;99.90;;;;;;5051965;28;20029;-66
2021/11/10 08:16:15;;;;;;;29.75;17.10;;;2.50;99.90;;;;;;5049106;28;20502;-65
2021/11/10 08:18:41;;;;;;;29.10;17.52;;;2.60;99.90;;;;;;5051342;28;20037;-66
2021/11/10 08:21:07;;;;;;;24.98;16.13;;;2.70;99.90;;;;;;5050121;28;20600;-66
2021/11/10 08:23:34;;;;;;;26.52;17.95;;;2.80;99.90;;;;;;5051863;28;20040;-66
2021/11/10 08:26:00;;;;;;;25.40;15.70;;;2.90;99.90;;;;;;5050016;28;20052;-66
2021/11/10 08:28:27;;;;;;;29.73;16.40;;;3.00;99.90;;;;;;5051691;28;20470;-66
2021/11/10 08:30:53;;;;;;;32.67;18.60;;;3.00;99.90;;;;;;5050501;28;20059;-66
2021/11/10 08:33:20;;;;;;;34.50;18.65;;;3.10;99.90;;;;;;5051652;28;20157;-66
2021/11/10 08:35:48;;;;;;;31.50;18.70;;;3.20;99.90;;;;;;5050597;28;20430;-66
2021/11/10 08:38:16;;;;;;;36.28;18.65;;;3.30;99.90;;;;;;5050367;28;20482;-66
2021/11/10 08:40:41;;;;;;;32.22;17.15;;;3.40;99.90;;;;;;5051096;28;20493;-65
2021/11/10 08:43:10;;;;;;;28.90;16.88;;;3.40;99.90;;;;;;5050858;28;20029;-66
2021/11/10 08:45:36;;;;;;;35.10;17.73;;;3.50;99.90;;;;;;5050529;28;20387;-66
2021/11/10 08:48:05;;;;;;;29.20;16.08;;;3.60;99.90;;;;;;5050522;28;20033;-66
2021/11/10 08:50:33;;;;;;;29.92;17.65;;;3.70;99.90;;;;;;5049503;28;20021;-66
2021/11/10 08:53:00;;;;;;;30.27;16.83;;;3.80;99.90;;;;;;5049406;28;20033;-66
2021/11/10 08:55:26;;;;;;;27.70;16.48;;;4.00;99.90;;;;;;5051383;28;20477;-64
2021/11/10 08:57:52;;;;;;;28.13;15.95;;;4.00;99.90;;;;;;5050430;28;20056;-64
2021/11/10 09:00:26;;;;;;;27.85;15.95;;;4.10;99.90;;;;;;5051153;28;20029;-64
2021/11/10 09:02:54;;;;;;;26.13;14.95;;;4.20;99.90;;;;;;5052835;28;20055;-64
2021/11/10 09:05:19;;;;;;;27.63;15.52;;;4.10;99.90;;;;;;5055212;28;20024;-65
2021/11/10 09:07:45;;;;;;;28.35;16.85;;;4.10;99.90;;;;;;5054807;28;20036;-65
2021/11/10 09:10:13;;;;;;;27.10;15.55;;;4.10;99.90;;;;;;5054104;28;20403;-65
2021/11/10 09:12:40;;;;;;;28.95;16.23;;;4.10;99.90;;;;;;5054511;28;20094;-65
2021/11/10 09:15:09;;;;;;;24.95;15.25;;;4.10;99.90;;;;;;5054209;28;20083;-65
2021/11/10 09:17:35;;;;;;;27.17;15.00;;;4.10;99.90;;;;;;5054211;28;20056;-65
2021/11/10 09:20:06;;;;;;;31.08;15.75;;;4.10;99.90;;;;;;5053612;28;20493;-65
2021/11/10 09:22:32;;;;;;;27.75;15.05;;;4.10;99.90;;;;;;5054748;28;20521;-65
2021/11/10 09:24:58;;;;;;;25.73;16.88;;;4.10;99.90;;;;;;5054112;28;20040;-65
2021/11/10 09:27:24;;;;;;;27.67;15.18;;;4.20;99.90;;;;;;5053409;28;20500;-65
2021/11/10 09:29:57;;;;;;;24.95;15.50;;;4.30;99.90;;;;;;5053466;28;20121;-65
2021/11/10 09:32:24;;;;;;;26.13;14.82;;;4.50;99.90;;;;;;5054790;28;20386;-65
2021/11/10 09:34:56;;;;;;;25.83;15.70;;;4.70;99.90;;;;;;5054714;28;20095;-65
2021/11/10 09:37:22;;;;;;;26.77;15.38;;;4.80;99.90;;;;;;5054143;28;20033;-65
2021/11/10 09:39:48;;;;;;;30.67;14.90;;;4.90;99.90;;;;;;5053241;28;20043;-65
2021/11/10 09:42:14;;;;;;;27.48;16.15;;;5.00;99.90;;;;;;5053822;28;20037;-65
2021/11/10 09:44:40;;;;;;;25.50;15.60;;;5.10;99.90;;;;;;5054609;28;20398;-65
2021/11/10 09:47:07;;;;;;;25.63;15.75;;;5.20;99.90;;;;;;5053076;28;20075;-65
2021/11/10 09:49:33;;;;;;;30.08;16.25;;;5.20;99.90;;;;;;5053743;28;20036;-65
2021/11/10 09:52:00;;;;;;;26.08;15.55;;;5.40;99.90;;;;;;5053175;28;20021;-65
2021/11/10 09:54:26;;;;;;;25.55;15.52;;;5.50;99.90;;;;;;5054542;28;20033;-65
2021/11/10 09:56:58;;;;;;;27.13;15.93;;;5.50;99.90;;;;;;5053428;28;20078;-65
2021/11/10 09:59:24;;;;;;;25.77;15.70;;;5.60;99.90;;;;;;5053549;28;20043;-65
2021/11/10 10:01:50;;;;;;;28.48;16.92;;;5.70;99.90;;;;;;5054074;28;20039;-65
2021/11/10 10:04:17;;;;;;;27.17;15.27;;;5.70;99.90;;;;;;5052162;28;20029;-65
2021/11/10 10:06:44;;;;;;;27.92;15.07;;;5.70;99.90;;;;;;5053746;28;20120;-65
2021/11/10 10:09:12;;;;;;;25.25;15.68;;;5.70;99.90;;;;;;5051920;28;20032;-65
2021/11/10 10:11:42;;;;;;;23.77;14.75;;;5.70;99.90;;;;;;5045395;28;20492;-66
2021/11/10 10:14:08;;;;;;;;;;;5.70;99.90;;;;;;5053171;28;20033;-65
2021/11/10 10:16:35;;;;;;;23.30;14.75;;;5.70;99.90;;;;;;5054132;28;20380;-65
2021/11/10 10:19:09;;;;;;;29.38;16.17;;;5.70;99.90;;;;;;5052735;28;20091;-65
2021/11/10 10:21:39;;;;;;;27.08;15.88;;;5.80;99.90;;;;;;5052538;28;20485;-65
2021/11/10 10:24:06;;;;;;;25.65;16.13;;;5.90;99.90;;;;;;5053013;28;20406;-65
2021/11/10 10:26:31;;;;;;;26.88;15.68;;;5.90;99.90;;;;;;5053241;28;20378;-65
2021/11/10 10:29:04;;;;;;;24.55;16.15;;;5.90;99.90;;;;;;5053241;28;20032;-65
2021/11/10 10:31:31;;;;;;;32.28;18.77;;;5.90;99.90;;;;;;5046338;28;20073;-65
2021/11/10 10:34:10;;;;;;;28.30;17.77;;;6.00;99.90;;;;;;5053015;28;20037;-65
2021/11/10 10:36:38;;;;;;;25.20;16.90;;;6.20;99.90;;;;;;5053543;28;20107;-65
2021/11/10 10:39:07;;;;;;;27.35;15.95;;;6.30;99.90;;;;;;5052657;28;20037;-65
2021/11/10 10:41:36;;;;;;;31.42;15.90;;;6.40;99.90;;;;;;5053120;28;20116;-65
2021/11/10 10:44:06;;;;;;;26.00;15.73;;;6.40;99.90;;;;;;5052144;28;20033;-65
2021/11/10 10:46:35;;;;;;;26.00;16.02;;;6.50;99.90;;;;;;5052945;28;20469;-65
2021/11/10 10:49:13;;;;;;;23.85;15.50;;;6.60;99.90;;;;;;5051418;28;20037;-65
2021/11/10 10:51:39;;;;;;;23.77;15.50;;;6.70;99.90;;;;;;5053081;28;20374;-65
2021/11/10 10:54:09;;;;;;;26.63;15.48;;;6.80;99.90;;;;;;5052598;28;20029;-65
2021/11/10 10:56:36;;;;;;;29.05;15.38;;;6.90;99.90;;;;;;5051939;28;20025;-65
2021/11/10 10:59:13;;;;;;;24.45;15.05;;;6.90;99.90;;;;;;5048644;28;20036;-65
2021/11/10 11:01:47;;;;;;;24.70;14.65;;;7.00;99.90;;;;;;5045362;28;20053;-65
2021/11/10 11:04:17;;;;;;;25.25;15.23;;;7.00;99.90;;;;;;5052478;28;20494;-64
2021/11/10 11:06:45;;;;;;;26.35;15.25;;;7.10;99.90;;;;;;5037785;28;20064;-65
2021/11/10 11:09:29;;;;;;;26.73;15.00;;;7.20;99.90;;;;;;5048989;28;20032;-64
2021/11/10 11:11:59;;;;;;;24.40;15.23;;;7.20;99.90;;;;;;5035950;28;20029;-64
2021/11/10 11:17:20;;;;;;;23.77;15.68;;;7.40;99.90;;;;;;5052297;28;20118;-65
2021/11/10 11:20:11;;;;;;;28.08;14.88;;;7.40;99.90;;;;;;5052739;28;20502;-64
2021/11/10 11:22:36;;;;;;;;;;;7.50;99.90;;;;;;5052996;28;20415;-64
2021/11/10 11:25:15;;;;;;;21.42;14.13;;;7.60;99.90;;;;;;5051840;28;19915;-65
2021/11/10 11:27:57;;;;;;;24.20;15.27;;;7.70;99.90;;;;;;5032694;28;20036;-64
2021/11/10 11:30:25;;;;;;;21.42;14.50;;;7.90;99.90;;;;;;5038947;28;20036;-64
2021/11/10 11:32:55;;;;;;;23.52;14.52;;;8.00;99.90;;;;;;5052516;28;20389;-65
2021/11/10 11:35:40;;;;;;;23.80;14.85;;;8.00;99.90;;;;;;5051405;28;20079;-65
2021/11/10 11:38:15;;;;;;;27.15;16.33;;;8.10;99.90;;;;;;5051937;28;20064;-65
2021/11/10 11:40:42;;;;;;;28.92;15.35;;;8.10;99.90;;;;;;5051928;28;20125;-64
2021/11/10 11:43:14;;;;;;;25.67;15.45;;;8.10;99.90;;;;;;5050472;28;20056;-65
2021/11/10 11:45:45;;;;;;;28.27;16.20;;;8.00;99.90;;;;;;5052825;28;20056;-65
2021/11/10 11:48:12;;;;;;;24.02;14.75;;;7.90;99.90;;;;;;5052324;28;20512;-64
2021/11/10 11:50:39;;;;;;;27.02;14.63;;;7.90;99.90;;;;;;5051466;28;20170;-64
2021/11/10 11:53:06;;;;;;;26.35;15.07;;;7.80;99.90;;;;;;5051247;28;20060;-64
2021/11/10 11:55:33;;;;;;;24.38;14.70;;;7.80;99.90;;;;;;5052031;28;20055;-64
2021/11/10 11:58:08;;;;;;;27.48;16.48;;;7.80;99.90;;;;;;5050924;28;20398;-65
2021/11/10 12:00:41;;;;;;;22.42;14.98;;;7.80;99.90;;;;;;5051792;28;20059;-65
2021/11/10 12:03:37;;;;;;;26.13;15.35;;;7.80;99.90;;;;;;5051304;28;20032;-65
2021/11/10 12:06:04;;;;;;;25.95;15.63;;;7.80;99.90;;;;;;5051279;28;20037;-65
2021/11/10 12:08:39;;;;;;;31.75;16.42;;;7.80;99.90;;;;;;5051710;28;20032;-65
2021/11/10 12:11:20;;;;;;;26.15;15.45;;;7.80;99.90;;;;;;5050144;28;20040;-65
2021/11/10 12:14:04;;;;;;;23.40;15.80;;;7.70;99.90;;;;;;5051698;28;20044;-65
2021/11/10 12:16:48;;;;;;;26.98;16.58;;;7.70;99.90;;;;;;5051319;28;20113;-65
2021/11/10 12:19:34;;;;;;;26.15;16.13;;;7.70;99.90;;;;;;5051075;28;20027;-64
2021/11/10 12:22:10;;;;;;;27.52;16.65;;;7.80;99.90;;;;;;5050822;28;20535;-65
2021/11/10 12:24:58;;;;;;;25.48;14.52;;;7.90;99.90;;;;;;5050953;28;20029;-65
2021/11/10 12:27:32;;;;;;;27.80;14.80;;;7.90;99.90;;;;;;5050857;28;20458;-65
2021/11/10 12:30:17;;;;;;;23.90;15.57;;;8.00;99.90;;;;;;5050987;28;20052;-65
2021/11/10 12:32:46;;;;;;;23.98;15.07;;;8.00;99.90;;;;;;5051484;28;20065;-65
2021/11/10 12:35:34;;;;;;;25.90;16.65;;;8.10;99.90;;;;;;5050685;28;20070;-65
2021/11/10 12:38:29;;;;;;;25.00;14.80;;;8.30;99.90;;;;;;5051111;28;20366;-66
2021/11/10 12:41:06;;;;;;;27.88;15.43;;;8.30;99.90;;;;;;5050066;28;20536;-65
2021/11/10 12:43:43;;;;;;;27.20;15.95;;;8.40;99.90;;;;;;5050908;28;20060;-65
2021/11/10 12:46:21;;;;;;;31.23;15.32;;;8.50;99.90;;;;;;5050629;28;20500;-65